Time;durP1;ratioP1;P1;durP2;ratioP2;P2;SDS_P1;SDS_P2;PMS_P1;PMS_P2;Temp;Humidity;BMP_temperature;BMP_pressure;BME280_temperature;BME280_humidity;BME280_pressure;Samples;Min_cycle;Max_cycle;Signal;HPM_P1;HPM_P2
2022/09/14 00:02:02;;;;;;;;;4.50;4.50;;;;;23.34;68.28;99929.78;5098496;27;45466;-56
2022/09/14 00:04:27;;;;;;;;;6.25;6.25;;;;;23.35;68.28;99935.03;5098699;27;46030;-50
2022/09/14 00:06:52;;;;;;;;;7.75;5.75;;;;;23.33;68.01;99926.22;5097622;27;45316;-53
2022/09/14 00:09:23;;;;;;;;;7.00;6.00;;;;;23.34;67.98;99929.78;5098072;27;45232;-51
2022/09/14 00:11:48;;;;;;;;;8.00;6.25;;;;;23.33;68.10;99920.81;5091263;27;45673;-51
2022/09/14 00:14:15;;;;;;;;;6.00;6.00;;;;;23.33;68.00;99926.22;5077430;27;46706;-52
2022/09/14 00:16:41;;;;;;;;;4.75;4.75;;;;;23.30;68.19;99907.59;5077272;27;45421;-53
2022/09/14 00:19:16;;;;;;;;;8.50;7.75;;;;;23.34;67.90;99917.06;5078635;27;45409;-53
2022/09/14 00:21:41;;;;;;;;;7.75;6.00;;;;;23.34;68.22;99900.78;5076521;27;45449;-54
2022/09/14 00:24:08;;;;;;;;;9.00;8.00;;;;;23.30;67.92;99888.59;5085321;27;46070;-52
2022/09/14 00:26:34;;;;;;;;;5.80;5.80;;;;;23.33;68.29;99896.38;5091596;27;45267;-55
2022/09/14 00:29:03;;;;;;;;;7.50;6.50;;;;;23.31;67.87;99890.31;5077755;27;45285;-53
2022/09/14 00:31:30;;;;;;;;;6.25;5.75;;;;;23.25;67.66;99885.59;5086784;27;45531;-51
2022/09/14 00:33:55;;;;;;;;;7.00;5.75;;;;;23.24;67.63;99879.34;5099069;27;45356;-53
2022/09/14 00:36:24;;;;;;;;;8.50;7.75;;;;;23.32;67.92;99886.56;5097068;27;45438;-52
2022/09/14 00:38:51;;;;;;;;;7.00;6.25;;;;;23.32;68.02;99880.28;5098102;27;45415;-51
2022/09/14 00:41:20;;;;;;;;;7.00;4.75;;;;;23.29;67.69;99870.63;5098170;27;46923;-56
2022/09/14 00:44:02;;;;;;;;;7.75;5.00;;;;;23.30;67.65;99866.88;5098080;27;45512;-51
2022/09/14 00:46:31;;;;;;;;;3.80;3.80;;;;;23.30;68.12;99869.59;5092456;27;45451;-54
2022/09/14 00:48:59;;;;;;;;;7.00;5.25;;;;;23.28;67.89;99866.25;5078066;28;45448;-52
2022/09/14 00:51:28;;;;;;;;;7.75;5.75;;;;;23.25;67.94;99862.03;5086899;27;45412;-52
2022/09/14 00:53:54;;;;;;;;;6.00;5.75;;;;;23.27;67.75;99864.56;5098552;27;46137;-52
2022/09/14 00:56:20;;;;;;;;;4.75;4.75;;;;;23.25;67.92;99851.19;5089726;27;45812;-53
2022/09/14 00:58:50;;;;;;;;;10.50;7.50;;;;;23.25;68.09;99850.34;5078218;27;45495;-55
2022/09/14 01:01:15;;;;;;;;;7.00;6.75;;;;;23.21;68.40;99840.91;5082886;27;45488;-54
2022/09/14 01:03:41;;;;;;;;;5.25;4.75;;;;;23.23;68.63;99844.25;5091880;27;46307;-53
2022/09/14 01:06:31;;;;;;;;;7.75;6.00;;;;;23.16;68.60;99822.44;5098067;27;45225;-57
2022/09/14 01:09:11;;;;;;;;;4.00;4.00;;;;;23.16;68.83;99827.03;5097397;27;45336;-54
2022/09/14 01:11:37;;;;;;;;;7.00;5.25;;;;;23.12;69.07;99814.88;5098355;27;45221;-55
2022/09/14 01:14:34;;;;;;;;;5.00;5.00;;;;;23.09;68.89;99824.22;5096393;27;45340;-54
2022/09/14 01:17:27;;;;;;;;;5.00;5.00;;;;;23.11;68.46;99819.47;5097193;27;45424;-56
2022/09/14 01:19:55;;;;;;;;;8.50;4.75;;;;;23.10;68.85;99820.50;5086860;27;45365;-56
2022/09/14 01:22:31;;;;;;;;;8.00;6.25;;;;;23.08;68.66;99819.00;5077780;27;45464;-52
2022/09/14 01:25:12;;;;;;;;;5.00;5.00;;;;;23.07;68.41;99812.72;5078289;27;46896;-55
2022/09/14 01:27:42;;;;;;;;;5.75;5.75;;;;;23.03;68.88;99799.72;5082710;27;45842;-61
2022/09/14 01:30:17;;;;;;;;;6.00;5.00;;;;;22.92;68.64;99782.88;5078498;27;45366;-56
2022/09/14 01:33:21;;;;;;;;;5.25;4.00;;;;;23.10;68.92;99806.09;5089078;27;45320;-52
2022/09/14 01:35:53;;;;;;;;;4.75;4.75;;;;;23.09;69.26;99809.84;5094419;27;47784;-57
2022/09/14 01:38:30;;;;;;;;;5.50;4.00;;;;;23.07;69.33;99803.75;5095964;27;45350;-53
2022/09/14 01:40:59;;;;;;;;;3.75;3.75;;;;;22.99;68.94;99792.97;5098219;27;45795;-54
2022/09/14 01:43:36;;;;;;;;;7.00;5.00;;;;;23.02;69.19;99798.03;5097133;27;45329;-57
2022/09/14 01:46:16;;;;;;;;;7.25;6.00;;;;;23.04;69.49;99814.94;5095806;27;45480;-54
2022/09/14 01:48:51;;;;;;;;;4.75;4.00;;;;;23.01;69.35;99810.75;5096703;27;45420;-56
2022/09/14 01:51:24;;;;;;;;;4.50;4.50;;;;;23.00;69.55;99805.50;5097962;27;45348;-56
2022/09/14 01:53:57;;;;;;;;;4.75;4.75;;;;;22.95;70.29;99812.34;5095376;27;45621;-60
2022/09/14 01:56:31;;;;;;;;;6.25;5.00;;;;;22.94;70.03;99813.38;5096287;27;46391;-53
2022/09/14 01:59:21;;;;;;;;;5.50;5.50;;;;;22.93;70.59;99817.09;5095675;27;45267;-56
2022/09/14 02:01:57;;;;;;;;;6.00;5.00;;;;;22.93;70.64;99808.97;5097490;27;45415;-52
2022/09/14 02:04:44;;;;;;;;;3.50;3.50;;;;;22.91;70.42;99797.44;5094915;27;45824;-53
2022/09/14 02:07:10;;;;;;;;;4.00;4.00;;;;;22.87;71.36;99779.88;5094486;27;46348;-54
2022/09/14 02:09:37;;;;;;;;;5.00;5.00;;;;;22.89;70.91;99785.09;5076612;27;45716;-54
2022/09/14 02:12:02;;;;;;;;;5.75;4.00;;;;;22.78;70.58;99775.50;5078515;27;45292;-57
2022/09/14 02:14:28;;;;;;;;;6.00;6.00;;;;;22.80;70.55;99787.03;5089081;27;46202;-55
2022/09/14 02:16:54;;;;;;;;;5.00;5.00;;;;;22.83;70.20;99789.41;5096239;27;45653;-55
2022/09/14 02:19:20;;;;;;;;;7.00;5.00;;;;;22.80;70.28;99788.91;5083400;27;45430;-55
2022/09/14 02:21:46;;;;;;;;;5.75;4.25;;;;;22.74;70.57;99781.50;5097043;27;45444;-54
2022/09/14 02:24:11;;;;;;;;;4.50;3.25;;;;;22.79;70.81;99801.63;5094159;27;46075;-55
2022/09/14 02:26:37;;;;;;;;;7.50;6.50;;;;;22.74;70.60;99800.47;5095581;27;45424;-54
2022/09/14 02:29:04;;;;;;;;;5.75;5.50;;;;;22.75;70.75;99808.41;5092774;27;45887;-52
2022/09/14 02:32:00;;;;;;;;;8.00;3.75;;;;;22.76;71.17;99820.09;5094416;27;45314;-56
2022/09/14 02:34:50;;;;;;;;;4.75;4.75;;;;;22.74;70.78;99822.16;5096662;27;45297;-52
2022/09/14 02:37:18;;;;;;;;;4.75;4.75;;;;;22.70;71.19;99805.44;5094486;27;46531;-53
2022/09/14 02:40:08;;;;;;;;;4.75;4.75;;;;;22.73;70.88;99813.19;5095919;27;45824;-55
2022/09/14 02:43:03;;;;;;;;;5.00;5.00;;;;;22.72;70.95;99818.78;5095318;27;47287;-54
2022/09/14 02:45:43;;;;;;;;;7.25;6.25;;;;;22.66;70.93;99813.09;5089269;27;45487;-55
2022/09/14 02:48:28;;;;;;;;;0.00;0.00;;;;;22.67;70.62;99808.50;5132936;27;46573;-54
2022/09/14 02:51:05;;;;;;;;;4.50;4.50;;;;;22.67;70.60;99817.50;5104113;27;45484;-55
2022/09/14 02:53:46;;;;;;;;;6.25;4.25;;;;;22.67;70.41;99812.06;5100348;27;45420;-54
2022/09/14 02:56:13;;;;;;;;;7.25;5.50;;;;;22.68;70.66;99807.47;5103564;27;45367;-54
2022/09/14 02:58:41;;;;;;;;;4.00;4.00;;;;;22.62;70.59;99816.31;5101995;27;46248;-54
2022/09/14 03:01:10;;;;;;;;;2.00;2.00;;;;;22.61;70.32;99817.34;5091719;27;45287;-54
2022/09/14 03:03:35;;;;;;;;;7.00;4.50;;;;;22.60;70.22;99810.25;5082628;27;45415;-54
2022/09/14 03:06:00;;;;;;;;;4.00;4.00;;;;;22.58;70.50;99807.72;5103735;27;45328;-52
2022/09/14 03:08:26;;;;;;;;;4.50;3.25;;;;;22.60;70.35;99810.25;5099585;27;46055;-53
2022/09/14 03:10:53;;;;;;;;;4.25;4.25;;;;;22.60;69.88;99810.25;5089627;27;45395;-54
2022/09/14 03:13:18;;;;;;;;;4.50;2.75;;;;;22.59;69.82;99822.97;5103411;27;45334;-54
2022/09/14 03:15:44;;;;;;;;;3.00;3.00;;;;;22.55;69.72;99809.97;5102451;27;45519;-53
2022/09/14 03:18:10;;;;;;;;;4.25;2.50;;;;;22.60;69.81;99804.84;5100459;27;46077;-54
2022/09/14 03:20:36;;;;;;;;;6.00;3.00;;;;;22.59;69.69;99814.84;5084741;27;45843;-53
2022/09/14 03:23:02;;;;;;;;;4.00;4.00;;;;;22.57;70.41;99810.63;5082329;27;45441;-54
2022/09/14 03:25:28;;;;;;;;;6.75;5.25;;;;;22.52;70.30;99802.19;5101570;27;45541;-52
2022/09/14 03:27:58;;;;;;;;;4.25;2.25;;;;;22.58;70.08;99809.59;5102574;27;46085;-52
2022/09/14 03:30:26;;;;;;;;;4.00;4.00;;;;;22.60;70.32;99808.38;5085119;27;45361;-54
2022/09/14 03:32:52;;;;;;;;;4.00;4.00;;;;;22.57;69.77;99811.47;5087317;27;45379;-53
2022/09/14 03:35:18;;;;;;;;;5.00;5.00;;;;;22.55;69.91;99805.38;5082655;27;45658;-54
2022/09/14 03:37:44;;;;;;;;;4.00;4.00;;;;;22.60;70.02;99805.69;5089793;27;46521;-56
2022/09/14 03:40:12;;;;;;;;;4.50;3.75;;;;;22.63;70.26;99809.88;5101184;27;45471;-53
2022/09/14 03:42:43;;;;;;;;;5.00;4.00;;;;;22.58;69.84;99779.78;5102439;27;45274;-53
2022/09/14 03:45:10;;;;;;;;;11.50;10.50;;;;;22.61;70.48;99792.97;5103347;27;45396;-51
2022/09/14 03:47:36;;;;;;;;;5.00;5.00;;;;;22.53;70.31;99776.78;5095380;27;45477;-53
2022/09/14 03:50:01;;;;;;;;;4.50;4.50;;;;;22.62;69.85;99786.50;5081943;27;45658;-58
2022/09/14 03:52:26;;;;;;;;;6.25;4.00;;;;;22.54;69.77;99779.31;5084062;27;45409;-56
2022/09/14 03:54:52;;;;;;;;;6.25;5.00;;;;;22.60;69.63;99794.00;5103031;27;45384;-52
2022/09/14 03:57:18;;;;;;;;;6.00;5.00;;;;;22.59;69.82;99803.16;5098156;27;46160;-54
2022/09/14 03:59:43;;;;;;;;;6.50;5.00;;;;;22.57;69.92;99805.22;5078308;27;45316;-52
2022/09/14 04:02:08;;;;;;;;;6.25;5.75;;;;;22.58;69.91;99806.88;5079205;27;45608;-54
2022/09/14 04:04:34;;;;;;;;;4.00;4.00;;;;;22.55;70.25;99812.69;5097354;27;45249;-54
2022/09/14 04:06:59;;;;;;;;;6.75;4.00;;;;;22.52;70.23;99807.59;5085257;27;46277;-58
2022/09/14 04:09:24;;;;;;;;;6.00;6.00;;;;;22.50;70.44;99798.81;5095252;27;45472;-55
2022/09/14 04:11:50;;;;;;;;;4.50;4.50;;;;;22.51;70.48;99792.38;5099244;27;45273;-55
2022/09/14 04:14:16;;;;;;;;;3.75;3.75;;;;;22.45;70.65;99791.25;5096873;27;45378;-56
2022/09/14 04:16:43;;;;;;;;;4.00;4.00;;;;;22.46;70.24;99794.78;5097389;27;47381;-51
2022/09/14 04:19:10;;;;;;;;;6.25;5.00;;;;;22.45;70.55;99790.41;5098060;27;45422;-54
2022/09/14 04:21:36;;;;;;;;;7.00;5.50;;;;;22.35;70.27;99775.22;5098708;27;45392;-53
2022/09/14 04:24:01;;;;;;;;;4.00;2.75;;;;;22.39;70.39;99781.13;5096423;27;45542;-56
2022/09/14 04:26:29;;;;;;;;;4.00;4.00;;;;;22.34;70.41;99767.28;5078309;27;45423;-53
2022/09/14 04:28:54;;;;;;;;;4.00;4.00;;;;;22.36;70.16;99771.50;5078292;27;45266;-53
2022/09/14 04:31:20;;;;;;;;;3.50;3.25;;;;;22.36;70.76;99781.50;5078017;27;45414;-55
2022/09/14 04:33:48;;;;;;;;;8.50;6.50;;;;;22.34;70.89;99783.53;5088046;27;46061;-54
2022/09/14 04:36:16;;;;;;;;;4.00;4.00;;;;;22.27;70.60;99767.19;5098662;27;46057;-54
2022/09/14 04:38:43;;;;;;;;;6.00;4.50;;;;;22.28;70.25;99765.31;5088002;27;45347;-53
2022/09/14 04:41:14;;;;;;;;;3.25;3.25;;;;;22.26;70.69;99765.47;5092338;27;45479;-56
2022/09/14 04:43:40;;;;;;;;;2.00;2.00;;;;;22.24;70.16;99764.81;5099120;27;45301;-56
2022/09/14 04:46:15;;;;;;;;;6.00;4.75;;;;;22.24;70.54;99763.97;5078919;27;45932;-54
2022/09/14 04:48:41;;;;;;;;;4.75;4.75;;;;;22.20;70.87;99765.38;5097741;27;45356;-60
2022/09/14 04:51:18;;;;;;;;;4.75;4.75;;;;;22.19;71.07;99769.94;5099207;27;45367;-52
2022/09/14 04:53:46;;;;;;;;;4.75;4.75;;;;;22.12;72.19;99778.97;5097694;27;45328;-53
2022/09/14 04:56:13;;;;;;;;;5.00;3.50;;;;;22.08;71.70;99773.91;5098094;27;45514;-53
2022/09/14 04:58:42;;;;;;;;;4.50;4.50;;;;;22.05;71.94;99768.88;5087338;27;45808;-53
2022/09/14 05:01:14;;;;;;;;;9.25;4.75;;;;;22.06;71.83;99769.69;5080402;27;45403;-53
2022/09/14 05:03:40;;;;;;;;;4.00;4.00;;;;;22.05;71.49;99762.56;5080243;27;45696;-54
2022/09/14 05:06:11;;;;;;;;;5.00;5.00;;;;;22.04;72.01;99752.78;5094007;27;45498;-56
2022/09/14 05:08:37;;;;;;;;;4.25;4.00;;;;;21.99;72.11;99756.00;5085977;27;45439;-58
2022/09/14 05:11:07;;;;;;;;;4.50;4.50;;;;;21.98;72.55;99761.59;5091944;27;45470;-55
2022/09/14 05:13:33;;;;;;;;;6.00;4.75;;;;;21.97;72.10;99757.19;5093819;27;45595;-51
2022/09/14 05:16:07;;;;;;;;;4.00;4.00;;;;;22.00;72.51;99754.97;5096829;27;46081;-56
2022/09/14 05:18:33;;;;;;;;;6.00;4.75;;;;;21.99;72.44;99747.03;5097590;27;45767;-53
2022/09/14 05:21:04;;;;;;;;;7.50;4.75;;;;;21.96;72.41;99739.28;5091698;27;45530;-55
2022/09/14 05:23:30;;;;;;;;;2.00;0.25;;;;;21.97;72.79;99732.84;5099947;27;45258;-54
2022/09/14 05:25:56;;;;;;;;;5.00;4.00;;;;;22.00;72.60;99737.88;5098581;27;45364;-53
2022/09/14 05:28:21;;;;;;;;;5.25;5.25;;;;;21.97;72.82;99727.41;5078164;27;45473;-54
2022/09/14 05:30:46;;;;;;;;;5.00;4.75;;;;;21.98;72.92;99723.69;5112194;27;45430;-53
2022/09/14 05:33:12;;;;;;;;;4.00;4.00;;;;;21.96;72.64;99731.16;5095971;27;45495;-52
2022/09/14 05:35:37;;;;;;;;;5.75;4.75;;;;;21.95;72.69;99726.75;5094783;27;46108;-51
2022/09/14 05:38:03;;;;;;;;;4.25;3.00;;;;;21.97;72.98;99728.25;5095291;27;45531;-56
2022/09/14 05:40:28;;;;;;;;;5.00;5.00;;;;;21.91;72.40;99717.31;5087650;27;45671;-55
2022/09/14 05:42:53;;;;;;;;;7.50;5.00;;;;;21.98;72.93;99729.94;5079790;27;45515;-52
2022/09/14 05:45:19;;;;;;;;;6.00;6.00;;;;;21.99;72.60;99728.91;5080259;27;45448;-55
2022/09/14 05:47:44;;;;;;;;;7.75;5.00;;;;;21.99;72.41;99731.63;5096939;27;45798;-56
2022/09/14 05:50:10;;;;;;;;;6.75;6.75;;;;;21.98;72.46;99729.94;5091608;27;45798;-53
2022/09/14 05:52:35;;;;;;;;;6.00;6.00;;;;;22.02;72.41;99741.28;5091485;27;45379;-55
2022/09/14 05:55:01;;;;;;;;;5.25;5.25;;;;;22.02;72.05;99742.13;5076860;27;45405;-59
2022/09/14 05:57:26;;;;;;;;;6.00;6.00;;;;;22.01;72.30;99728.78;5076550;27;45372;-53
2022/09/14 05:59:52;;;;;;;;;8.00;6.75;;;;;22.12;72.04;99747.31;5083231;27;45408;-59
2022/09/14 06:02:17;;;;;;;;;6.00;6.00;;;;;22.15;72.32;99748.84;5097155;27;45313;-52
2022/09/14 06:04:42;;;;;;;;;6.00;6.00;;;;;22.18;71.64;99765.56;5092609;27;52132;-54
2022/09/14 06:07:08;;;;;;;;;9.00;7.25;;;;;22.23;71.56;99771.25;5089341;27;45456;-64
2022/09/14 06:09:33;;;;;;;;;6.25;5.00;;;;;22.24;71.47;99766.69;5088414;27;46277;-60
2022/09/14 06:11:59;;;;;;;;;8.00;6.50;;;;;22.26;71.86;99776.31;5099555;27;45581;-60
2022/09/14 06:14:25;;;;;;;;;6.00;5.25;;;;;22.27;71.36;99771.75;5091814;27;45414;-54
2022/09/14 06:16:50;;;;;;;;;6.00;4.00;;;;;22.28;71.30;99759.91;5090412;27;45421;-65
2022/09/14 06:19:16;;;;;;;;;6.50;5.75;;;;;22.25;71.38;99757.53;5097379;27;45384;-62
2022/09/14 06:21:42;;;;;;;;;5.75;5.00;;;;;22.30;71.51;99766.81;5082596;27;45654;-55
2022/09/14 06:24:09;;;;;;;;;7.75;5.00;;;;;22.27;71.76;99755.50;5084541;27;45520;-61
2022/09/14 06:26:34;;;;;;;;;7.00;5.00;;;;;22.30;71.16;99764.09;5096351;27;45377;-62
2022/09/14 06:29:00;;;;;;;;;6.25;6.25;;;;;22.31;71.93;99765.78;5087769;27;45861;-55
2022/09/14 06:31:25;;;;;;;;;5.25;5.25;;;;;22.29;72.04;99759.72;5097308;27;45260;-49
2022/09/14 06:33:51;;;;;;;;;5.75;5.75;;;;;22.30;71.66;99769.53;5116859;27;46148;-57
2022/09/14 06:36:23;;;;;;;;;9.25;8.50;;;;;22.34;71.22;99762.72;5099229;27;45486;-51
2022/09/14 06:38:49;;;;;;;;;9.50;7.75;;;;;22.43;71.70;99776.19;5081591;27;45682;-56
2022/09/14 06:41:17;;;;;;;;;7.75;6.75;;;;;22.36;73.36;99755.25;5091200;27;45543;-50
2022/09/14 06:43:43;;;;;;;;;9.25;8.00;;;;;22.33;74.47;99768.31;5096190;27;46138;-51
2022/09/14 06:46:11;;;;;;;;;7.50;5.00;;;;;22.23;74.74;99763.13;5096255;27;45935;-53
2022/09/14 06:48:39;;;;;;;;;11.00;7.00;;;;;22.11;74.63;99745.63;5097571;27;45297;-51
2022/09/14 06:51:32;;;;;;;;;4.00;4.00;;;;;22.10;74.02;99765.59;5098002;27;45208;-53
2022/09/14 06:53:59;;;;;;;;;8.50;6.00;;;;;22.11;74.27;99766.44;5090967;27;46397;-53
2022/09/14 06:56:25;;;;;;;;;12.00;6.50;;;;;22.10;74.80;99765.59;5095878;27;45543;-50
2022/09/14 06:58:52;;;;;;;;;6.00;6.00;;;;;22.10;74.89;99762.91;5093269;27;45355;-49
2022/09/14 07:01:19;;;;;;;;;7.50;7.00;;;;;22.12;75.28;99770.84;5094803;27;45359;-48
2022/09/14 07:03:46;;;;;;;;;5.50;4.00;;;;;22.10;74.81;99768.31;5086265;27;45654;-54
2022/09/14 07:06:15;;;;;;;;;7.50;7.00;;;;;22.04;75.15;99766.31;5091339;27;45612;-60
2022/09/14 07:08:41;;;;;;;;;7.25;7.25;;;;;22.17;75.63;99782.84;5092397;27;45579;-55
2022/09/14 07:11:09;;;;;;;;;6.75;6.75;;;;;22.22;74.19;99776.84;5088039;27;45477;-60
2022/09/14 07:13:35;;;;;;;;;8.00;8.00;;;;;22.30;74.32;99774.09;5086199;27;47135;-56
2022/09/14 07:16:02;;;;;;;;;9.00;7.00;;;;;22.36;74.42;99763.38;5094416;27;45325;-56
2022/09/14 07:18:31;;;;;;;;;7.50;7.25;;;;;22.50;73.37;99771.72;5090626;27;45406;-56
2022/09/14 07:21:08;;;;;;;;;8.00;6.00;;;;;22.52;72.65;99764.25;5077404;27;45635;-57
2022/09/14 07:23:38;;;;;;;;;8.00;7.00;;;;;22.60;72.30;99783.16;5084940;27;46130;-59
2022/09/14 07:26:07;;;;;;;;;8.00;7.75;;;;;22.63;72.66;99778.19;5088261;27;46941;-51
2022/09/14 07:28:34;;;;;;;;;7.75;7.75;;;;;22.67;72.13;99773.28;5087170;27;45412;-59
2022/09/14 07:31:00;;;;;;;;;6.50;6.50;;;;;22.64;72.95;99760.06;5079536;27;45620;-54
2022/09/14 07:33:26;;;;;;;;;6.75;6.00;;;;;22.80;71.94;99776.19;5086744;27;45864;-60
2022/09/14 07:35:51;;;;;;;;;5.75;5.75;;;;;22.86;72.44;99780.06;5082987;27;45502;-53
2022/09/14 07:38:17;;;;;;;;;8.50;6.50;;;;;22.94;71.74;99786.25;5087001;27;45460;-48
2022/09/14 07:40:43;;;;;;;;;8.75;5.50;;;;;23.01;71.59;99791.75;5086019;27;45566;-52
2022/09/14 07:43:08;;;;;;;;;7.75;7.25;;;;;23.07;71.21;99787.47;5097973;27;46230;-53
2022/09/14 07:45:35;;;;;;;;;10.00;8.25;;;;;23.08;71.53;99797.31;5095858;27;45539;-48
2022/09/14 07:48:01;;;;;;;;;7.75;7.75;;;;;23.08;71.21;99792.72;5100048;27;45577;-48
2022/09/14 07:50:29;;;;;;;;;8.25;7.50;;;;;23.13;71.29;99784.00;5110942;27;45358;-56
2022/09/14 07:52:54;;;;;;;;;9.25;9.25;;;;;23.18;70.62;99792.44;5098292;27;46162;-56
2022/09/14 07:55:20;;;;;;;;;9.00;8.00;;;;;23.25;70.49;99796.06;5082914;27;45810;-53
2022/09/14 07:57:45;;;;;;;;;7.00;6.25;;;;;23.31;70.08;99802.63;5099123;27;45282;-51
2022/09/14 08:00:12;;;;;;;;;7.75;7.75;;;;;23.31;69.53;99803.50;5099755;27;45611;-58
2022/09/14 08:02:37;;;;;;;;;7.00;7.00;;;;;23.43;68.89;99807.38;5114576;27;46422;-55
2022/09/14 08:05:03;;;;;;;;;8.50;5.75;;;;;23.49;68.47;99803.94;5098984;27;45491;-59
2022/09/14 08:07:28;;;;;;;;;7.50;6.00;;;;;23.58;68.68;99799.28;5078988;27;45362;-55
2022/09/14 08:09:54;;;;;;;;;9.50;8.25;;;;;23.64;68.74;99797.69;5089462;27;45559;-52
2022/09/14 08:12:19;;;;;;;;;7.00;7.00;;;;;23.80;67.94;99819.19;5079699;27;46087;-58
2022/09/14 08:14:45;;;;;;;;;7.50;6.50;;;;;23.85;67.79;99822.19;5078767;27;45414;-56
2022/09/14 08:17:10;;;;;;;;;9.00;5.25;;;;;23.93;67.38;99830.19;5078345;27;45515;-58
2022/09/14 08:19:36;;;;;;;;;8.50;7.50;;;;;23.98;67.75;99821.50;5077534;27;45675;-50
2022/09/14 08:22:03;;;;;;;;;7.50;7.25;;;;;23.98;66.81;99826.94;5086636;27;47318;-51
2022/09/14 08:24:30;;;;;;;;;4.50;4.50;;;;;23.93;66.62;99841.06;5099735;27;45194;-58
2022/09/14 08:26:55;;;;;;;;;7.25;6.75;;;;;23.89;66.93;99850.63;5086478;27;45578;-50
2022/09/14 08:29:21;;;;;;;;;6.00;6.00;;;;;23.85;66.95;99849.34;5099073;27;45496;-58
2022/09/14 08:31:47;;;;;;;;;6.25;6.25;;;;;23.79;66.26;99850.06;5098659;27;45486;-56
2022/09/14 08:34:15;;;;;;;;;9.50;6.25;;;;;23.72;67.12;99849.16;5082994;27;45336;-52
2022/09/14 08:36:41;;;;;;;;;8.50;6.75;;;;;23.69;66.43;99844.09;5078371;27;45421;-55
2022/09/14 08:39:09;;;;;;;;;6.50;5.75;;;;;23.76;67.42;99845.03;5078986;27;45222;-58
2022/09/14 08:41:43;;;;;;;;;6.75;6.50;;;;;23.98;66.33;99848.66;5080845;27;46112;-56
2022/09/14 08:44:12;;;;;;;;;7.50;6.00;;;;;24.14;66.33;99848.41;5096248;27;47073;-53
2022/09/14 08:46:56;;;;;;;;;7.50;7.50;;;;;24.19;66.47;99845.13;5097738;27;45379;-53
2022/09/14 08:49:50;;;;;;;;;9.00;8.00;;;;;24.33;65.58;99857.84;5093848;27;45289;-57
2022/09/14 08:52:42;;;;;;;;;9.75;9.50;;;;;24.34;66.70;99854.09;5096008;27;45360;-56
2022/09/14 08:55:19;;;;;;;;;10.25;7.75;;;;;24.26;67.80;99851.47;5094341;27;45396;-58
2022/09/14 08:57:53;;;;;;;;;10.75;9.25;;;;;24.12;68.22;99842.34;5080643;27;45510;-62
2022/09/14 09:00:29;;;;;;;;;7.25;7.25;;;;;24.10;67.53;99847.97;5077643;27;45480;-61
2022/09/14 09:03:33;;;;;;;;;10.00;8.50;;;;;24.13;67.33;99861.16;5081180;27;46150;-56
2022/09/14 09:06:08;;;;;;;;;8.80;8.00;;;;;24.29;67.03;99867.41;5081956;27;45325;-58
2022/09/14 09:08:58;;;;;;;;;8.20;7.80;;;;;24.43;65.99;99861.09;5080425;27;45369;-59
2022/09/14 09:11:29;;;;;;;;;8.25;8.25;;;;;24.57;65.80;99849.31;5086209;27;45585;-58
2022/09/14 09:13:56;;;;;;;;;6.50;6.50;;;;;24.77;65.15;99854.13;5090652;27;45677;-57
2022/09/14 09:16:25;;;;;;;;;7.75;7.50;;;;;24.92;64.55;99844.00;5079843;27;45422;-57
2022/09/14 09:19:06;;;;;;;;;10.00;10.00;;;;;25.18;64.06;99852.38;5082320;27;46026;-58
2022/09/14 09:21:42;;;;;;;;;8.75;8.75;;;;;25.42;62.84;99858.41;5083491;27;45462;-58
2022/09/14 09:24:21;;;;;;;;;7.25;6.75;;;;;25.53;62.40;99855.13;5082077;27;45882;-56
2022/09/14 09:26:47;;;;;;;;;8.40;8.40;;;;;25.65;61.87;99853.50;5083373;27;45530;-54
2022/09/14 09:29:13;;;;;;;;;7.00;6.00;;;;;25.81;61.50;99858.66;5081261;27;45483;-54
2022/09/14 09:31:44;;;;;;;;;5.00;5.00;;;;;25.97;60.07;99845.72;5080416;27;45678;-55
2022/09/14 09:34:16;;;;;;;;;10.60;8.80;;;;;26.09;59.70;99850.38;5087101;27;46024;-56
2022/09/14 09:36:46;;;;;;;;;7.60;5.00;;;;;26.16;58.68;99855.84;5086422;27;45481;-57
2022/09/14 09:39:13;;;;;;;;;4.80;4.80;;;;;26.22;58.56;99855.03;5078357;27;45896;-59
2022/09/14 09:41:56;;;;;;;;;5.00;5.00;;;;;26.26;56.89;99850.84;5089244;27;47254;-61
2022/09/14 09:44:22;;;;;;;;;5.20;5.20;;;;;26.21;57.95;99845.19;5081453;28;45312;-60
2022/09/14 09:46:55;;;;;;;;;6.50;5.00;;;;;26.14;58.47;99847.03;5086823;27;45414;-57
2022/09/14 09:49:22;;;;;;;;;6.60;5.60;;;;;26.09;59.05;99844.94;5079339;27;45368;-60
2022/09/14 09:51:49;;;;;;;;;7.40;7.20;;;;;25.97;57.57;99846.56;5088713;27;45782;-60
2022/09/14 09:54:15;;;;;;;;;7.00;6.60;;;;;25.98;58.25;99858.28;5086555;27;45835;-57
2022/09/14 09:56:53;;;;;;;;;4.75;4.75;;;;;25.96;57.48;99872.13;5078263;27;45466;-58
2022/09/14 09:59:34;;;;;;;;;4.20;4.00;;;;;25.91;57.67;99857.41;5095191;27;45516;-57
2022/09/14 10:02:30;;;;;;;;;4.00;4.00;;;;;25.90;56.25;99845.69;5089461;27;45748;-55
2022/09/14 10:05:02;;;;;;;;;3.80;3.80;;;;;25.84;57.15;99852.78;5084462;27;45539;-60
2022/09/14 10:07:31;;;;;;;;;4.20;4.00;;;;;25.74;57.01;99844.16;5095423;27;45388;-59
2022/09/14 10:10:09;;;;;;;;;3.00;3.00;;;;;25.63;56.78;99846.56;5097235;27;45357;-57
2022/09/14 10:12:38;;;;;;;;;5.25;4.75;;;;;25.62;56.40;99843.00;5096452;27;45471;-59
2022/09/14 10:15:20;;;;;;;;;4.40;4.40;;;;;25.61;56.73;99835.03;5090548;27;45522;-58
2022/09/14 10:18:25;;;;;;;;;4.00;3.20;;;;;25.70;56.24;99834.72;5091034;27;45409;-53
2022/09/14 10:20:53;;;;;;;;;4.20;4.20;;;;;25.66;55.16;99830.69;5037265;28;45426;-54
2022/09/14 10:23:18;;;;;;;;;3.75;2.75;;;;;25.64;55.28;99830.03;5074618;28;45306;-60
2022/09/14 10:26:04;;;;;;;;;3.00;3.00;;;;;25.61;55.39;99833.16;5072504;27;46142;-59
2022/09/14 10:28:32;;;;;;;;;3.60;3.00;;;;;25.61;54.81;99827.72;5081957;27;45885;-55
2022/09/14 10:31:18;;;;;;;;;6.80;3.00;;;;;25.54;55.48;99821.41;5094927;27;45353;-53
2022/09/14 10:33:50;;;;;;;;;4.00;4.00;;;;;25.47;55.40;99813.19;5096308;27;45552;-53
2022/09/14 10:36:36;;;;;;;;;4.40;3.00;;;;;25.42;54.28;99809.41;5078412;27;45372;-53
2022/09/14 10:39:14;;;;;;;;;3.60;3.40;;;;;25.59;55.05;99813.47;5075942;27;45388;-54
2022/09/14 10:41:57;;;;;;;;;4.00;4.00;;;;;25.61;54.23;99805.09;5073763;27;45229;-55
2022/09/14 10:44:56;;;;;;;;;3.50;3.50;;;;;25.66;54.60;99802.63;5076351;27;45443;-54
2022/09/14 10:47:49;;;;;;;;;3.00;3.00;;;;;25.69;54.36;99794.91;5077177;27;48022;-56
2022/09/14 10:50:33;;;;;;;;;4.60;3.00;;;;;25.65;54.04;99787.28;5081818;27;45740;-56
2022/09/14 10:53:20;;;;;;;;;4.00;4.00;;;;;25.79;54.36;99789.94;5096277;27;45466;-58
2022/09/14 10:55:54;;;;;;;;;4.00;2.20;;;;;25.81;52.45;99787.00;5087127;27;45397;-59
2022/09/14 10:58:44;;;;;;;;;3.00;3.00;;;;;25.76;53.86;99782.13;5088789;27;45516;-59
2022/09/14 11:02:14;;;;;;;;;3.20;3.20;;;;;25.83;53.83;99780.28;5095989;27;45799;-56
2022/09/14 11:05:06;;;;;;;;;4.40;3.40;;;;;25.90;52.85;99780.31;5012507;28;45491;-56
2022/09/14 11:08:01;;;;;;;;;2.50;2.25;;;;;25.98;53.60;99771.13;5016132;28;45829;-57
2022/09/14 11:10:29;;;;;;;;;5.40;3.80;;;;;26.13;53.75;99774.50;5071958;27;46205;-58
2022/09/14 11:13:01;;;;;;;;;4.80;3.00;;;;;26.22;53.18;99781.44;5079132;27;45428;-56
2022/09/14 11:15:44;;;;;;;;;3.40;3.20;;;;;26.36;53.54;99771.44;5089508;27;45642;-56
2022/09/14 11:18:37;;;;;;;;;3.00;3.00;;;;;26.57;51.57;99764.94;5100182;27;45227;-51
2022/09/14 11:21:28;;;;;;;;;3.40;3.40;;;;;26.86;50.56;99778.16;5088905;27;47204;-56
2022/09/14 11:24:02;;;;;;;;;2.80;2.80;;;;;26.96;51.08;99775.00;5088953;27;47494;-59
2022/09/14 11:26:46;;;;;;;;;3.00;3.00;;;;;26.98;50.39;99776.47;5099230;27;45435;-51
2022/09/14 11:29:15;;;;;;;;;3.40;2.80;;;;;27.17;51.47;99774.75;5093795;27;45315;-54
2022/09/14 11:32:03;;;;;;;;;4.00;4.00;;;;;27.37;50.80;99772.00;5098527;27;45442;-55
2022/09/14 11:34:37;;;;;;;;;3.60;3.60;;;;;27.41;51.18;99773.22;5099102;27;45315;-59
2022/09/14 11:37:12;;;;;;;;;2.80;2.80;;;;;27.51;50.74;99778.25;5097728;27;45500;-54
2022/09/14 11:39:46;;;;;;;;;4.60;2.00;;;;;27.65;48.98;99779.06;5096695;27;45574;-60
2022/09/14 11:42:47;;;;;;;;;3.20;2.80;;;;;27.61;49.79;99784.09;5093767;27;45632;-60
2022/09/14 11:45:20;;;;;;;;;3.40;2.00;;;;;27.54;48.53;99778.66;5076490;27;45477;-64
2022/09/14 11:47:58;;;;;;;;;2.60;2.60;;;;;27.53;49.83;99782.44;5093512;27;45445;-61
2022/09/14 11:50:30;;;;;;;;;1.60;1.60;;;;;27.50;50.28;99791.06;5099469;27;45229;-53
2022/09/14 11:53:12;;;;;;;;;2.00;2.00;;;;;27.49;50.07;99797.59;5097886;27;45332;-58
2022/09/14 11:55:45;;;;;;;;;2.60;2.40;;;;;27.40;49.27;99781.63;5099086;27;45295;-66